Here is the Quick Look data you requested

The Data originates at the National Weather Service, and is made available here by the UAlbany Department of Atmospheric and Environmental Sciences

Surface Observations

KMTN 241150Z 30010G15KT 10SM BKN140 18/13 A2985=
KMTN 241250Z 28018G25KT 10SM BKN180 18/09 A2987=
KMTN 241350Z 28011G20KT 10SM BKN100 18/07 A2988=
KMTN 241455Z 19015G18KT 10SM SCT100 19/08 A2989=
KMTN 241550Z 30010KT 10SM SCT100 21/07 A2988=
KMTN 241650Z 27012G19KT 10SM FEW100 22/07 A2987=
KMTN 241745Z 29014G19KT 10SM SCT100 22/06 A2985=
KMTN 241845Z 30013G18KT 10SM FEW170 SCT250 23/07 A2985=
KMTN 241954Z 32011G16KT 10SM SCT200 24/04 A2984=
KMTN 242045Z 28010G15KT 10SM SCT200 24/04 A2984=
KMTN 242145Z 27010KT 10SM BKN170 BKN250 23/02 A2985=
KMTN 242245Z 30006KT 10SM FEW130 BKN170 BKN250 22/04 A2984=
KMTN 242345Z 00000KT 10SM SCT130 BKN160 30/03 A2986=
KMTN 250045Z 00000KT 10SM FEW130 BKN160 10/05 A2987=
KMTN 250145Z 33003KT 10SM SCT160 17/08 A2989 RMK LAST=
KMTN 250203Z AUTO 34003KT 10SM CLR 16/07 A2990 RMK AO2=
KMTN 250221Z AUTO 00000KT 10SM CLR 16/06 A2990 RMK AO2=
KMTN 250242Z AUTO 00000KT 10SM CLR 16/06 A2991 RMK AO2=
KMTN 250300Z AUTO 00000KT 10SM CLR 15/07 A2991 RMK AO2=
KMTN 250321Z AUTO 00000KT 10SM CLR 14/08 A2991 RMK AO2=
KMTN 250342Z AUTO 00000KT 10SM CLR 13/08 A2992 RMK AO2=
KMTN 250400Z AUTO 00000KT 10SM CLR 15/07 A2992 RMK AO2=
KMTN 250421Z AUTO 00000KT 10SM CLR 15/06 A2992 RMK AO2=
KMTN 250442Z AUTO 00000KT 10SM CLR 15/07 A2992 RMK AO2=
KMTN 250500Z AUTO 00000KT 10SM CLR 16/07 A2992 RMK AO2=
KMTN 250521Z AUTO 00000KT 10SM CLR 15/08 A2992 RMK AO2=
KMTN 250542Z AUTO 00000KT 10SM SCT100 15/10 A2991 RMK AO2=
KMTN 250603Z AUTO 00000KT 10SM SCT100 15/08 A2990 RMK AO2=
KMTN 250621Z AUTO 00000KT 10SM CLR 15/08 A2991 RMK AO2=
KMTN 250703Z AUTO 00000KT 10SM SCT120 15/08 A2990 RMK AO2=
KMTN 250721Z AUTO 00000KT 10SM BKN120 15/07 A2991 RMK AO2=
KMTN 250742Z AUTO 00000KT 10SM BKN095 OVC120 15/08 A2991 RMK AO2=
KMTN 250803Z AUTO 30003KT 10SM BKN095 OVC110 14/08 A2991 RMK AO2=
KMTN 250821Z AUTO 00000KT 10SM OVC095 15/08 A2991 RMK AO2=
KMTN 250842Z AUTO 00000KT 10SM OVC100 15/08 A2991 RMK AO2 LTG DSNT S=
KMTN 250903Z AUTO 00000KT 10SM OVC100 15/08 A2991 RMK AO2=
KMTN 250921Z AUTO 00000KT 10SM OVC100 15/07 A2992 RMK AO2=
KMTN 250930Z AUTO 00000KT 10SM OVC100 15/07 A2992 RMK AO2=
KMTN 250950Z 00000KT 10SM BKN100 BKN120 15/08 A2992 RMK FIRST=
KMTN 251050Z 00000KT 10SM OVC100 14/09 A2994=
KMTN 251145Z 00000KT 10SM BKN120 OVC150 16/08 A2996=
KMTN 251245Z 06005KT 10SM BKN100 BKN120 OVC150 17/08 A2996=
KMTN 251345Z 06005KT 10SM SCT070 BKN100 OVC200 17/09 A2995=
KMTN 251445Z 05003KT 10SM BKN150 17/19 A2995=
KMTN 251520Z 11004KT 10SM BKN160 18/02 A2996=
KMTN 251554Z 09005KT 10SM SCT080 BKN160 OVC250 19/10 A2995=
KMTN 251645Z 09005KT 10SM BKN160 BKN250 20/10 A2993=
KMTN 251745Z 09005KT 10SM BKN160 BKN250 20/11 A2993=